Redwood City, CA (94065)

06:00 PDT le 22 mai 2015 (GMT -0700)
Belmont - Island Park | | Change Station
CLOSE
Current Station
Stations météorologiques personnelles
Location: Belmont, CA
Altitude: 5 ft
Stations météo à proximité

Alt. 5 ft 37.53 °N, 122.27 °W | Updated 9 seconds ago

Overcast
Couvert
57.2 ° F
Paraît 57.2 ° F
N
0.0
Vent Variable Vent de Ouest
Gusts 0.0 mph

Aujourd'hui
Haut(e) -- | Bas -- ° F
--% Risque de précip.
Hier
Haut(e) -- | Bas -- ° F
Precip. -- pouce
5:54 AM 8:17 PM
Lune montante, 21% visible
Pression 30.01 pouce
Visibilité 10.0 Miles terrestres
Nuages Nuageux 1500 ft
Couvert 4300 ft
Point de rosée 52 ° F
Humidité 82%
Précipitations 0.00 pouce
Profondeur de la couche neigeuse Non disponible.
UV 0 sur 12
Pollen 5.80 sur 12
Qualité de l'air Non disponible.
Flu Activity Sporadic
METAR KSQL 221255Z AUTO 29004KT 10SM BKN015 OVC043 14/10 A3001 RMK AO2

More Conditions Fewer Conditions

Pression 30.01 pouce
Visibilité 10.0 Miles terrestres
Nuages Nuageux 1500 ft
Couvert 4300 ft
Point de rosée 52 ° F
Humidité 82%
Précipitations 0.00 pouce
Profondeur de la couche neigeuse Non disponible.
UV 0 sur 12
Pollen 5.80 sur 12
Qualité de l'air Non disponible.
Flu Activity Sporadic
METAR KSQL 221255Z AUTO 29004KT 10SM BKN015 OVC043 14/10 A3001 RMK AO2

More Conditions Fewer Conditions

10-Day Weather Forecast

Almanac

Astronomie

May. 22, 2015 Lever Coucher
Temps réel
Crépuscule civil
Crépuscule nautique
Crépuscule astronomique
Lune
Durée de lumière visible
Longueur du jour
Tomorrow will be .
, % of the Moon is Illuminated

Extrêmes aujourd'hui

State Highs State Lows

Community

WunderPhotos

Upload Photos

1,823,210 Photos téléchargées !

WunderBlogs® & News

Nearby

Qualité de l'air

  Qualité de l'air Indice de la qualité de l'air Polluant
Not available.

Épaisseur de neige

Station Depth Altitude

Activité sismique

Ville Distance Mag. Time & Date
Minimum magnitude displayed is 2.5.

Températures des eaux côtières

Lieu Température

Stations

Stations météo à proximité

Emplacement de la station Température Refroidissement éolien Point de rosée Humidité Vent Precip. Alt. Mise à jour Type